sensor_id;sensor_type;location;lat;lon;timestamp;P1;durP1;ratioP1;P2;durP2;ratioP2
51451;SDS011;37521;52.020;-1.740;2023-06-24T00:00:35;3.13;;;2.05;;
51451;SDS011;37521;52.020;-1.740;2023-06-24T00:03:05;2.08;;;1.65;;
51451;SDS011;37521;52.020;-1.740;2023-06-24T00:05:36;1.95;;;1.70;;
51451;SDS011;37521;52.020;-1.740;2023-06-24T00:08:09;3.13;;;2.38;;
51451;SDS011;37521;52.020;-1.740;2023-06-24T00:10:37;3.00;;;2.00;;
51451;SDS011;37521;52.020;-1.740;2023-06-24T00:13:06;3.92;;;2.40;;
51451;SDS011;37521;52.020;-1.740;2023-06-24T00:15:34;3.67;;;2.28;;
51451;SDS011;37521;52.020;-1.740;2023-06-24T00:18:03;2.83;;;1.75;;
51451;SDS011;37521;52.020;-1.740;2023-06-24T00:20:33;4.78;;;2.10;;
51451;SDS011;37521;52.020;-1.740;2023-06-24T00:23:03;4.45;;;2.60;;
51451;SDS011;37521;52.020;-1.740;2023-06-24T00:25:33;3.83;;;2.08;;
51451;SDS011;37521;52.020;-1.740;2023-06-24T00:28:02;2.25;;;1.48;;
51451;SDS011;37521;52.020;-1.740;2023-06-24T00:30:31;3.00;;;1.90;;
51451;SDS011;37521;52.020;-1.740;2023-06-24T00:33:00;2.70;;;2.08;;
51451;SDS011;37521;52.020;-1.740;2023-06-24T00:35:29;3.40;;;2.28;;
51451;SDS011;37521;52.020;-1.740;2023-06-24T00:37:57;2.45;;;2.25;;
51451;SDS011;37521;52.020;-1.740;2023-06-24T00:40:27;4.18;;;2.10;;
51451;SDS011;37521;52.020;-1.740;2023-06-24T00:42:56;2.30;;;2.08;;
51451;SDS011;37521;52.020;-1.740;2023-06-24T00:45:25;3.40;;;2.13;;
51451;SDS011;37521;52.020;-1.740;2023-06-24T00:47:53;2.88;;;2.15;;
51451;SDS011;37521;52.020;-1.740;2023-06-24T00:50:22;2.10;;;1.80;;
51451;SDS011;37521;52.020;-1.740;2023-06-24T00:52:52;2.42;;;2.15;;
51451;SDS011;37521;52.020;-1.740;2023-06-24T00:55:21;3.70;;;2.50;;
51451;SDS011;37521;52.020;-1.740;2023-06-24T00:57:51;4.60;;;2.10;;
51451;SDS011;37521;52.020;-1.740;2023-06-24T01:00:22;2.88;;;2.10;;
51451;SDS011;37521;52.020;-1.740;2023-06-24T01:02:51;3.60;;;2.10;;
51451;SDS011;37521;52.020;-1.740;2023-06-24T01:05:20;2.65;;;2.42;;
51451;SDS011;37521;52.020;-1.740;2023-06-24T01:07:50;2.95;;;2.33;;
51451;SDS011;37521;52.020;-1.740;2023-06-24T01:10:23;3.30;;;2.37;;
51451;SDS011;37521;52.020;-1.740;2023-06-24T01:12:55;4.60;;;2.50;;
51451;SDS011;37521;52.020;-1.740;2023-06-24T01:15:23;2.90;;;1.98;;
51451;SDS011;37521;52.020;-1.740;2023-06-24T01:17:57;3.47;;;2.47;;
51451;SDS011;37521;52.020;-1.740;2023-06-24T01:20:33;3.08;;;2.28;;
51451;SDS011;37521;52.020;-1.740;2023-06-24T01:23:16;2.65;;;2.22;;
51451;SDS011;37521;52.020;-1.740;2023-06-24T01:26:07;3.70;;;2.40;;
51451;SDS011;37521;52.020;-1.740;2023-06-24T01:31:55;5.10;;;2.47;;
51451;SDS011;37521;52.020;-1.740;2023-06-24T01:34:29;2.75;;;2.13;;
51451;SDS011;37521;52.020;-1.740;2023-06-24T01:37:04;4.80;;;2.53;;
51451;SDS011;37521;52.020;-1.740;2023-06-24T01:39:40;3.55;;;2.13;;
51451;SDS011;37521;52.020;-1.740;2023-06-24T01:42:14;4.13;;;2.58;;
51451;SDS011;37521;52.020;-1.740;2023-06-24T01:44:46;2.83;;;2.60;;
51451;SDS011;37521;52.020;-1.740;2023-06-24T01:47:18;3.25;;;2.78;;
51451;SDS011;37521;52.020;-1.740;2023-06-24T01:49:50;4.50;;;2.25;;
51451;SDS011;37521;52.020;-1.740;2023-06-24T01:52:21;2.03;;;1.92;;
51451;SDS011;37521;52.020;-1.740;2023-06-24T01:54:51;3.20;;;2.33;;
51451;SDS011;37521;52.020;-1.740;2023-06-24T01:57:23;2.40;;;2.20;;
51451;SDS011;37521;52.020;-1.740;2023-06-24T01:59:54;4.22;;;2.35;;
51451;SDS011;37521;52.020;-1.740;2023-06-24T02:02:25;4.07;;;2.35;;
51451;SDS011;37521;52.020;-1.740;2023-06-24T02:04:56;2.72;;;2.30;;
51451;SDS011;37521;52.020;-1.740;2023-06-24T02:07:25;4.43;;;2.80;;
51451;SDS011;37521;52.020;-1.740;2023-06-24T02:09:56;2.78;;;2.28;;
51451;SDS011;37521;52.020;-1.740;2023-06-24T02:12:26;2.55;;;2.35;;
51451;SDS011;37521;52.020;-1.740;2023-06-24T02:14:56;4.75;;;2.35;;
51451;SDS011;37521;52.020;-1.740;2023-06-24T02:17:28;3.13;;;2.50;;
51451;SDS011;37521;52.020;-1.740;2023-06-24T02:19:57;3.55;;;2.78;;
51451;SDS011;37521;52.020;-1.740;2023-06-24T02:22:27;3.40;;;2.55;;
51451;SDS011;37521;52.020;-1.740;2023-06-24T02:24:56;4.40;;;2.60;;
51451;SDS011;37521;52.020;-1.740;2023-06-24T02:27:25;5.72;;;2.55;;
51451;SDS011;37521;52.020;-1.740;2023-06-24T02:29:55;3.92;;;2.63;;
51451;SDS011;37521;52.020;-1.740;2023-06-24T02:32:25;5.13;;;2.75;;
51451;SDS011;37521;52.020;-1.740;2023-06-24T02:34:56;3.15;;;2.63;;
51451;SDS011;37521;52.020;-1.740;2023-06-24T02:37:27;4.28;;;2.75;;
51451;SDS011;37521;52.020;-1.740;2023-06-24T02:39:56;6.32;;;2.65;;
51451;SDS011;37521;52.020;-1.740;2023-06-24T02:42:25;5.38;;;2.58;;
51451;SDS011;37521;52.020;-1.740;2023-06-24T02:44:54;2.85;;;2.33;;
51451;SDS011;37521;52.020;-1.740;2023-06-24T02:47:22;3.70;;;2.63;;
51451;SDS011;37521;52.020;-1.740;2023-06-24T02:49:52;3.47;;;2.35;;
51451;SDS011;37521;52.020;-1.740;2023-06-24T02:52:24;7.85;;;2.55;;
51451;SDS011;37521;52.020;-1.740;2023-06-24T02:54:56;3.42;;;2.50;;
51451;SDS011;37521;52.020;-1.740;2023-06-24T02:57:43;4.43;;;2.55;;
51451;SDS011;37521;52.020;-1.740;2023-06-24T03:00:33;2.85;;;2.40;;
51451;SDS011;37521;52.020;-1.740;2023-06-24T03:03:28;4.32;;;2.50;;
51451;SDS011;37521;52.020;-1.740;2023-06-24T03:05:57;5.45;;;2.47;;
51451;SDS011;37521;52.020;-1.740;2023-06-24T03:08:30;4.15;;;2.38;;
51451;SDS011;37521;52.020;-1.740;2023-06-24T03:10:59;3.58;;;2.63;;
51451;SDS011;37521;52.020;-1.740;2023-06-24T03:13:29;3.92;;;2.30;;
51451;SDS011;37521;52.020;-1.740;2023-06-24T03:16:04;3.58;;;2.67;;
51451;SDS011;37521;52.020;-1.740;2023-06-24T03:18:46;3.92;;;2.53;;
51451;SDS011;37521;52.020;-1.740;2023-06-24T03:21:15;4.32;;;2.55;;
51451;SDS011;37521;52.020;-1.740;2023-06-24T03:23:47;3.78;;;2.45;;
51451;SDS011;37521;52.020;-1.740;2023-06-24T03:26:16;3.58;;;2.72;;
51451;SDS011;37521;52.020;-1.740;2023-06-24T03:28:44;3.50;;;3.08;;
51451;SDS011;37521;52.020;-1.740;2023-06-24T03:31:15;3.17;;;2.35;;
51451;SDS011;37521;52.020;-1.740;2023-06-24T03:33:44;3.30;;;2.35;;
51451;SDS011;37521;52.020;-1.740;2023-06-24T03:36:15;3.83;;;2.60;;
51451;SDS011;37521;52.020;-1.740;2023-06-24T03:38:43;2.90;;;2.30;;
51451;SDS011;37521;52.020;-1.740;2023-06-24T03:41:13;6.28;;;2.70;;
51451;SDS011;37521;52.020;-1.740;2023-06-24T03:43:42;3.13;;;2.10;;
51451;SDS011;37521;52.020;-1.740;2023-06-24T03:46:12;5.25;;;2.45;;
51451;SDS011;37521;52.020;-1.740;2023-06-24T03:48:40;3.60;;;2.58;;
51451;SDS011;37521;52.020;-1.740;2023-06-24T03:51:09;2.92;;;2.10;;
51451;SDS011;37521;52.020;-1.740;2023-06-24T03:53:38;4.85;;;2.10;;
51451;SDS011;37521;52.020;-1.740;2023-06-24T03:56:06;2.97;;;2.25;;
51451;SDS011;37521;52.020;-1.740;2023-06-24T03:58:36;4.63;;;2.33;;
51451;SDS011;37521;52.020;-1.740;2023-06-24T04:01:04;2.90;;;2.55;;
51451;SDS011;37521;52.020;-1.740;2023-06-24T04:03:33;3.58;;;2.20;;
51451;SDS011;37521;52.020;-1.740;2023-06-24T04:06:01;3.03;;;2.58;;
51451;SDS011;37521;52.020;-1.740;2023-06-24T04:08:30;3.80;;;2.67;;
51451;SDS011;37521;52.020;-1.740;2023-06-24T04:10:59;7.45;;;2.72;;
51451;SDS011;37521;52.020;-1.740;2023-06-24T04:13:30;3.03;;;2.20;;
51451;SDS011;37521;52.020;-1.740;2023-06-24T04:16:02;3.75;;;2.15;;
51451;SDS011;37521;52.020;-1.740;2023-06-24T04:18:33;2.78;;;1.88;;
51451;SDS011;37521;52.020;-1.740;2023-06-24T04:21:04;2.30;;;2.10;;
51451;SDS011;37521;52.020;-1.740;2023-06-24T04:23:33;4.18;;;2.17;;
51451;SDS011;37521;52.020;-1.740;2023-06-24T04:26:01;3.88;;;2.42;;
51451;SDS011;37521;52.020;-1.740;2023-06-24T04:28:30;3.88;;;2.20;;
51451;SDS011;37521;52.020;-1.740;2023-06-24T04:31:00;4.35;;;2.47;;
51451;SDS011;37521;52.020;-1.740;2023-06-24T04:33:30;2.17;;;1.98;;
51451;SDS011;37521;52.020;-1.740;2023-06-24T04:35:59;2.55;;;2.05;;
51451;SDS011;37521;52.020;-1.740;2023-06-24T04:38:28;4.35;;;2.50;;
51451;SDS011;37521;52.020;-1.740;2023-06-24T04:40:59;4.18;;;2.67;;
51451;SDS011;37521;52.020;-1.740;2023-06-24T04:43:28;4.60;;;2.55;;
51451;SDS011;37521;52.020;-1.740;2023-06-24T04:45:56;5.85;;;3.03;;
51451;SDS011;37521;52.020;-1.740;2023-06-24T04:48:25;4.15;;;2.70;;
51451;SDS011;37521;52.020;-1.740;2023-06-24T04:50:56;7.82;;;3.38;;
51451;SDS011;37521;52.020;-1.740;2023-06-24T04:53:24;3.25;;;2.88;;
51451;SDS011;37521;52.020;-1.740;2023-06-24T04:55:53;4.97;;;2.85;;
51451;SDS011;37521;52.020;-1.740;2023-06-24T04:58:21;4.75;;;2.50;;
51451;SDS011;37521;52.020;-1.740;2023-06-24T05:00:50;5.43;;;2.60;;
51451;SDS011;37521;52.020;-1.740;2023-06-24T05:03:18;4.68;;;2.90;;
51451;SDS011;37521;52.020;-1.740;2023-06-24T05:05:47;5.40;;;3.22;;
51451;SDS011;37521;52.020;-1.740;2023-06-24T05:08:17;7.43;;;2.92;;
51451;SDS011;37521;52.020;-1.740;2023-06-24T05:10:45;3.63;;;2.80;;
51451;SDS011;37521;52.020;-1.740;2023-06-24T05:13:14;4.32;;;2.70;;
51451;SDS011;37521;52.020;-1.740;2023-06-24T05:15:42;2.80;;;2.25;;
51451;SDS011;37521;52.020;-1.740;2023-06-24T05:18:11;4.65;;;2.97;;
51451;SDS011;37521;52.020;-1.740;2023-06-24T05:20:39;5.55;;;2.28;;
51451;SDS011;37521;52.020;-1.740;2023-06-24T05:23:08;5.32;;;2.72;;
51451;SDS011;37521;52.020;-1.740;2023-06-24T05:25:37;4.30;;;2.88;;
51451;SDS011;37521;52.020;-1.740;2023-06-24T05:28:06;4.88;;;2.80;;
51451;SDS011;37521;52.020;-1.740;2023-06-24T05:30:34;4.68;;;2.72;;
51451;SDS011;37521;52.020;-1.740;2023-06-24T05:33:03;5.30;;;2.78;;
51451;SDS011;37521;52.020;-1.740;2023-06-24T05:35:35;5.13;;;3.17;;
51451;SDS011;37521;52.020;-1.740;2023-06-24T05:38:06;6.03;;;2.55;;
51451;SDS011;37521;52.020;-1.740;2023-06-24T05:40:35;5.45;;;3.03;;
51451;SDS011;37521;52.020;-1.740;2023-06-24T05:43:05;2.97;;;2.28;;
51451;SDS011;37521;52.020;-1.740;2023-06-24T05:45:33;8.52;;;3.15;;
51451;SDS011;37521;52.020;-1.740;2023-06-24T05:48:02;4.93;;;3.03;;
51451;SDS011;37521;52.020;-1.740;2023-06-24T05:50:31;5.00;;;3.08;;
51451;SDS011;37521;52.020;-1.740;2023-06-24T05:52:59;3.65;;;3.05;;
51451;SDS011;37521;52.020;-1.740;2023-06-24T05:55:28;4.93;;;2.47;;
51451;SDS011;37521;52.020;-1.740;2023-06-24T05:57:56;5.32;;;2.53;;
51451;SDS011;37521;52.020;-1.740;2023-06-24T06:00:27;5.22;;;2.88;;
51451;SDS011;37521;52.020;-1.740;2023-06-24T06:02:55;4.30;;;2.92;;
51451;SDS011;37521;52.020;-1.740;2023-06-24T06:05:24;4.43;;;2.35;;
51451;SDS011;37521;52.020;-1.740;2023-06-24T06:07:52;3.90;;;2.95;;
51451;SDS011;37521;52.020;-1.740;2023-06-24T06:10:21;4.22;;;2.83;;
51451;SDS011;37521;52.020;-1.740;2023-06-24T06:12:49;4.50;;;3.47;;
51451;SDS011;37521;52.020;-1.740;2023-06-24T06:15:19;4.50;;;3.10;;
51451;SDS011;37521;52.020;-1.740;2023-06-24T06:17:49;4.68;;;2.50;;
51451;SDS011;37521;52.020;-1.740;2023-06-24T06:20:19;4.53;;;2.90;;
51451;SDS011;37521;52.020;-1.740;2023-06-24T06:22:47;4.03;;;2.58;;
51451;SDS011;37521;52.020;-1.740;2023-06-24T06:25:17;2.95;;;2.17;;
51451;SDS011;37521;52.020;-1.740;2023-06-24T06:27:46;5.40;;;2.53;;
51451;SDS011;37521;52.020;-1.740;2023-06-24T06:30:14;4.75;;;2.65;;
51451;SDS011;37521;52.020;-1.740;2023-06-24T06:32:44;5.35;;;2.33;;
51451;SDS011;37521;52.020;-1.740;2023-06-24T06:35:14;2.50;;;2.00;;
51451;SDS011;37521;52.020;-1.740;2023-06-24T06:37:42;3.10;;;2.55;;
51451;SDS011;37521;52.020;-1.740;2023-06-24T06:40:13;4.38;;;2.58;;
51451;SDS011;37521;52.020;-1.740;2023-06-24T06:42:41;5.00;;;2.75;;
51451;SDS011;37521;52.020;-1.740;2023-06-24T06:45:10;5.95;;;3.13;;
51451;SDS011;37521;52.020;-1.740;2023-06-24T06:47:38;5.90;;;2.90;;
51451;SDS011;37521;52.020;-1.740;2023-06-24T06:50:07;4.88;;;2.70;;
51451;SDS011;37521;52.020;-1.740;2023-06-24T06:52:37;3.13;;;2.35;;
51451;SDS011;37521;52.020;-1.740;2023-06-24T06:55:06;4.65;;;3.03;;
51451;SDS011;37521;52.020;-1.740;2023-06-24T06:57:36;4.57;;;2.90;;
51451;SDS011;37521;52.020;-1.740;2023-06-24T07:00:08;4.82;;;2.20;;
51451;SDS011;37521;52.020;-1.740;2023-06-24T07:02:37;3.83;;;2.50;;
51451;SDS011;37521;52.020;-1.740;2023-06-24T07:05:05;3.55;;;2.50;;
51451;SDS011;37521;52.020;-1.740;2023-06-24T07:07:38;4.03;;;2.38;;
51451;SDS011;37521;52.020;-1.740;2023-06-24T07:10:06;5.72;;;2.67;;
51451;SDS011;37521;52.020;-1.740;2023-06-24T07:12:35;4.05;;;2.08;;
51451;SDS011;37521;52.020;-1.740;2023-06-24T07:15:04;4.30;;;2.33;;
51451;SDS011;37521;52.020;-1.740;2023-06-24T07:17:33;2.97;;;1.98;;
51451;SDS011;37521;52.020;-1.740;2023-06-24T07:20:02;2.92;;;2.10;;
51451;SDS011;37521;52.020;-1.740;2023-06-24T07:22:31;3.33;;;2.35;;
51451;SDS011;37521;52.020;-1.740;2023-06-24T07:25:00;4.03;;;2.78;;
51451;SDS011;37521;52.020;-1.740;2023-06-24T07:27:29;5.15;;;2.58;;
51451;SDS011;37521;52.020;-1.740;2023-06-24T07:29:57;4.38;;;1.98;;
51451;SDS011;37521;52.020;-1.740;2023-06-24T07:32:26;3.25;;;2.20;;
51451;SDS011;37521;52.020;-1.740;2023-06-24T07:34:55;3.70;;;2.13;;
51451;SDS011;37521;52.020;-1.740;2023-06-24T07:37:23;5.80;;;2.38;;
51451;SDS011;37521;52.020;-1.740;2023-06-24T07:39:52;4.57;;;2.33;;
51451;SDS011;37521;52.020;-1.740;2023-06-24T07:42:22;2.17;;;1.98;;
51451;SDS011;37521;52.020;-1.740;2023-06-24T07:44:51;2.90;;;2.10;;
51451;SDS011;37521;52.020;-1.740;2023-06-24T07:47:19;3.47;;;2.83;;
51451;SDS011;37521;52.020;-1.740;2023-06-24T07:49:48;3.13;;;2.55;;
51451;SDS011;37521;52.020;-1.740;2023-06-24T07:52:16;4.15;;;1.90;;
51451;SDS011;37521;52.020;-1.740;2023-06-24T07:54:45;3.58;;;2.25;;
51451;SDS011;37521;52.020;-1.740;2023-06-24T07:57:13;3.45;;;2.70;;
51451;SDS011;37521;52.020;-1.740;2023-06-24T07:59:43;4.80;;;2.80;;
51451;SDS011;37521;52.020;-1.740;2023-06-24T08:02:12;3.25;;;2.80;;
51451;SDS011;37521;52.020;-1.740;2023-06-24T08:04:40;3.22;;;2.20;;
51451;SDS011;37521;52.020;-1.740;2023-06-24T08:07:09;2.47;;;2.28;;
51451;SDS011;37521;52.020;-1.740;2023-06-24T08:09:38;2.95;;;2.30;;
51451;SDS011;37521;52.020;-1.740;2023-06-24T08:12:07;3.33;;;2.30;;
51451;SDS011;37521;52.020;-1.740;2023-06-24T08:14:36;4.45;;;2.72;;
51451;SDS011;37521;52.020;-1.740;2023-06-24T08:17:06;4.35;;;2.70;;
51451;SDS011;37521;52.020;-1.740;2023-06-24T08:19:35;3.00;;;2.50;;
51451;SDS011;37521;52.020;-1.740;2023-06-24T08:22:03;2.42;;;2.10;;
51451;SDS011;37521;52.020;-1.740;2023-06-24T08:24:32;3.75;;;2.40;;
51451;SDS011;37521;52.020;-1.740;2023-06-24T08:27:01;3.15;;;2.05;;
51451;SDS011;37521;52.020;-1.740;2023-06-24T08:29:29;4.93;;;3.35;;
51451;SDS011;37521;52.020;-1.740;2023-06-24T08:31:58;3.08;;;2.15;;
51451;SDS011;37521;52.020;-1.740;2023-06-24T08:34:28;3.35;;;2.97;;
51451;SDS011;37521;52.020;-1.740;2023-06-24T08:36:56;3.83;;;2.47;;
51451;SDS011;37521;52.020;-1.740;2023-06-24T08:39:24;2.85;;;2.45;;
51451;SDS011;37521;52.020;-1.740;2023-06-24T08:41:53;3.20;;;2.40;;
51451;SDS011;37521;52.020;-1.740;2023-06-24T08:44:21;2.13;;;1.92;;
51451;SDS011;37521;52.020;-1.740;2023-06-24T08:46:50;3.30;;;2.80;;
51451;SDS011;37521;52.020;-1.740;2023-06-24T08:49:23;3.42;;;2.60;;
51451;SDS011;37521;52.020;-1.740;2023-06-24T08:52:00;3.05;;;2.47;;
51451;SDS011;37521;52.020;-1.740;2023-06-24T08:54:34;5.10;;;3.08;;
51451;SDS011;37521;52.020;-1.740;2023-06-24T08:57:03;5.32;;;2.30;;
51451;SDS011;37521;52.020;-1.740;2023-06-24T08:59:34;3.67;;;2.42;;
51451;SDS011;37521;52.020;-1.740;2023-06-24T09:02:03;3.30;;;2.95;;
51451;SDS011;37521;52.020;-1.740;2023-06-24T09:04:33;3.70;;;2.55;;
51451;SDS011;37521;52.020;-1.740;2023-06-24T09:07:02;4.38;;;2.65;;
51451;SDS011;37521;52.020;-1.740;2023-06-24T09:09:34;3.65;;;2.42;;
51451;SDS011;37521;52.020;-1.740;2023-06-24T09:12:11;2.83;;;2.20;;
51451;SDS011;37521;52.020;-1.740;2023-06-24T09:14:42;2.35;;;2.03;;
51451;SDS011;37521;52.020;-1.740;2023-06-24T09:17:17;4.22;;;2.88;;
51451;SDS011;37521;52.020;-1.740;2023-06-24T09:19:51;4.88;;;2.75;;
51451;SDS011;37521;52.020;-1.740;2023-06-24T09:22:19;3.47;;;2.38;;
51451;SDS011;37521;52.020;-1.740;2023-06-24T09:24:48;3.35;;;2.28;;
51451;SDS011;37521;52.020;-1.740;2023-06-24T09:27:17;4.32;;;3.03;;
51451;SDS011;37521;52.020;-1.740;2023-06-24T09:29:48;3.92;;;2.38;;
51451;SDS011;37521;52.020;-1.740;2023-06-24T09:32:17;6.55;;;2.72;;
51451;SDS011;37521;52.020;-1.740;2023-06-24T09:34:46;3.15;;;2.20;;
51451;SDS011;37521;52.020;-1.740;2023-06-24T09:37:22;2.97;;;2.50;;
51451;SDS011;37521;52.020;-1.740;2023-06-24T09:39:51;2.95;;;2.58;;
51451;SDS011;37521;52.020;-1.740;2023-06-24T09:42:20;4.70;;;2.95;;
51451;SDS011;37521;52.020;-1.740;2023-06-24T09:44:54;4.18;;;2.25;;
51451;SDS011;37521;52.020;-1.740;2023-06-24T09:47:23;4.05;;;3.20;;
51451;SDS011;37521;52.020;-1.740;2023-06-24T09:49:53;3.22;;;2.60;;
51451;SDS011;37521;52.020;-1.740;2023-06-24T09:52:23;5.97;;;2.83;;
51451;SDS011;37521;52.020;-1.740;2023-06-24T09:54:53;5.65;;;2.67;;
51451;SDS011;37521;52.020;-1.740;2023-06-24T09:57:25;3.50;;;2.50;;
51451;SDS011;37521;52.020;-1.740;2023-06-24T09:59:57;4.10;;;2.03;;
51451;SDS011;37521;52.020;-1.740;2023-06-24T10:02:28;3.60;;;2.17;;
51451;SDS011;37521;52.020;-1.740;2023-06-24T10:04:58;3.25;;;2.33;;
51451;SDS011;37521;52.020;-1.740;2023-06-24T10:07:29;1.98;;;1.75;;
51451;SDS011;37521;52.020;-1.740;2023-06-24T10:10:00;2.97;;;2.10;;
51451;SDS011;37521;52.020;-1.740;2023-06-24T10:12:30;4.72;;;2.60;;
51451;SDS011;37521;52.020;-1.740;2023-06-24T10:14:59;3.10;;;2.30;;
51451;SDS011;37521;52.020;-1.740;2023-06-24T10:17:29;4.55;;;2.65;;
51451;SDS011;37521;52.020;-1.740;2023-06-24T10:19:58;2.88;;;2.30;;
51451;SDS011;37521;52.020;-1.740;2023-06-24T10:22:32;3.42;;;2.42;;
51451;SDS011;37521;52.020;-1.740;2023-06-24T10:25:05;4.63;;;1.90;;
51451;SDS011;37521;52.020;-1.740;2023-06-24T10:27:38;2.33;;;1.85;;
51451;SDS011;37521;52.020;-1.740;2023-06-24T10:30:16;2.83;;;1.90;;
51451;SDS011;37521;52.020;-1.740;2023-06-24T10:32:46;2.92;;;2.05;;
51451;SDS011;37521;52.020;-1.740;2023-06-24T10:35:23;3.60;;;2.15;;
51451;SDS011;37521;52.020;-1.740;2023-06-24T10:37:55;4.32;;;2.40;;
51451;SDS011;37521;52.020;-1.740;2023-06-24T10:40:34;4.13;;;1.88;;
51451;SDS011;37521;52.020;-1.740;2023-06-24T10:45:53;2.88;;;1.77;;
51451;SDS011;37521;52.020;-1.740;2023-06-24T10:48:23;5.40;;;2.08;;
51451;SDS011;37521;52.020;-1.740;2023-06-24T10:50:51;2.97;;;2.08;;
51451;SDS011;37521;52.020;-1.740;2023-06-24T10:53:22;2.15;;;1.95;;
51451;SDS011;37521;52.020;-1.740;2023-06-24T10:55:51;2.60;;;2.15;;
51451;SDS011;37521;52.020;-1.740;2023-06-24T10:58:19;2.97;;;2.10;;
51451;SDS011;37521;52.020;-1.740;2023-06-24T11:00:48;2.28;;;2.08;;
51451;SDS011;37521;52.020;-1.740;2023-06-24T11:03:17;3.53;;;1.98;;
51451;SDS011;37521;52.020;-1.740;2023-06-24T11:05:48;2.03;;;1.85;;
51451;SDS011;37521;52.020;-1.740;2023-06-24T11:08:16;4.22;;;1.90;;
51451;SDS011;37521;52.020;-1.740;2023-06-24T11:10:47;3.55;;;2.10;;
51451;SDS011;37521;52.020;-1.740;2023-06-24T11:13:16;3.13;;;2.22;;
51451;SDS011;37521;52.020;-1.740;2023-06-24T11:15:48;3.00;;;2.20;;
51451;SDS011;37521;52.020;-1.740;2023-06-24T11:18:17;1.52;;;1.42;;
51451;SDS011;37521;52.020;-1.740;2023-06-24T11:20:45;2.17;;;1.90;;
51451;SDS011;37521;52.020;-1.740;2023-06-24T11:23:14;2.92;;;2.00;;
51451;SDS011;37521;52.020;-1.740;2023-06-24T11:25:42;2.60;;;1.50;;
51451;SDS011;37521;52.020;-1.740;2023-06-24T11:28:16;2.13;;;1.60;;
51451;SDS011;37521;52.020;-1.740;2023-06-24T11:30:48;1.85;;;1.70;;
51451;SDS011;37521;52.020;-1.740;2023-06-24T11:33:26;3.75;;;1.90;;
51451;SDS011;37521;52.020;-1.740;2023-06-24T11:35:55;2.28;;;1.60;;
51451;SDS011;37521;52.020;-1.740;2023-06-24T11:38:24;3.33;;;1.83;;
51451;SDS011;37521;52.020;-1.740;2023-06-24T11:40:59;3.58;;;1.95;;
51451;SDS011;37521;52.020;-1.740;2023-06-24T11:43:29;2.53;;;1.65;;
51451;SDS011;37521;52.020;-1.740;2023-06-24T11:45:57;2.50;;;1.58;;
51451;SDS011;37521;52.020;-1.740;2023-06-24T11:48:27;2.70;;;1.88;;
51451;SDS011;37521;52.020;-1.740;2023-06-24T11:50:56;2.60;;;1.83;;
51451;SDS011;37521;52.020;-1.740;2023-06-24T11:53:40;2.95;;;1.95;;
51451;SDS011;37521;52.020;-1.740;2023-06-24T11:56:10;1.50;;;1.40;;
51451;SDS011;37521;52.020;-1.740;2023-06-24T11:58:39;1.58;;;1.48;;
51451;SDS011;37521;52.020;-1.740;2023-06-24T12:01:11;3.28;;;2.20;;
51451;SDS011;37521;52.020;-1.740;2023-06-24T12:03:40;2.45;;;1.65;;
51451;SDS011;37521;52.020;-1.740;2023-06-24T12:06:09;2.60;;;1.88;;
51451;SDS011;37521;52.020;-1.740;2023-06-24T12:08:38;2.13;;;1.67;;
51451;SDS011;37521;52.020;-1.740;2023-06-24T12:11:17;2.00;;;1.77;;
51451;SDS011;37521;52.020;-1.740;2023-06-24T12:13:47;2.17;;;1.58;;
51451;SDS011;37521;52.020;-1.740;2023-06-24T12:16:15;1.77;;;1.60;;
51451;SDS011;37521;52.020;-1.740;2023-06-24T12:18:44;2.03;;;1.40;;
51451;SDS011;37521;52.020;-1.740;2023-06-24T12:21:12;1.52;;;1.30;;
51451;SDS011;37521;52.020;-1.740;2023-06-24T12:23:41;2.17;;;1.50;;
51451;SDS011;37521;52.020;-1.740;2023-06-24T12:26:09;3.30;;;1.55;;
51451;SDS011;37521;52.020;-1.740;2023-06-24T12:28:38;2.33;;;1.50;;
51451;SDS011;37521;52.020;-1.740;2023-06-24T12:31:08;2.42;;;1.67;;
51451;SDS011;37521;52.020;-1.740;2023-06-24T12:33:36;1.63;;;1.42;;
51451;SDS011;37521;52.020;-1.740;2023-06-24T12:36:05;2.10;;;1.08;;
51451;SDS011;37521;52.020;-1.740;2023-06-24T12:38:33;1.63;;;1.27;;
51451;SDS011;37521;52.020;-1.740;2023-06-24T12:41:03;2.75;;;1.05;;
51451;SDS011;37521;52.020;-1.740;2023-06-24T12:43:32;2.22;;;1.52;;
51451;SDS011;37521;52.020;-1.740;2023-06-24T12:46:00;2.20;;;1.30;;
51451;SDS011;37521;52.020;-1.740;2023-06-24T12:48:30;1.60;;;1.20;;
51451;SDS011;37521;52.020;-1.740;2023-06-24T12:50:58;2.42;;;1.33;;
51451;SDS011;37521;52.020;-1.740;2023-06-24T12:53:27;1.52;;;1.13;;
51451;SDS011;37521;52.020;-1.740;2023-06-24T12:55:55;1.10;;;1.00;;
51451;SDS011;37521;52.020;-1.740;2023-06-24T12:58:24;0.93;;;0.93;;
51451;SDS011;37521;52.020;-1.740;2023-06-24T13:00:53;1.45;;;1.02;;
51451;SDS011;37521;52.020;-1.740;2023-06-24T13:03:21;1.85;;;0.95;;
51451;SDS011;37521;52.020;-1.740;2023-06-24T13:05:51;1.40;;;1.30;;
51451;SDS011;37521;52.020;-1.740;2023-06-24T13:08:20;1.25;;;0.88;;
51451;SDS011;37521;52.020;-1.740;2023-06-24T13:10:49;1.13;;;1.13;;
51451;SDS011;37521;52.020;-1.740;2023-06-24T13:13:17;1.38;;;1.00;;
51451;SDS011;37521;52.020;-1.740;2023-06-24T13:15:46;1.33;;;1.05;;
51451;SDS011;37521;52.020;-1.740;2023-06-24T13:18:14;1.92;;;1.20;;
51451;SDS011;37521;52.020;-1.740;2023-06-24T13:20:44;2.97;;;1.67;;
51451;SDS011;37521;52.020;-1.740;2023-06-24T13:23:14;1.38;;;1.27;;
51451;SDS011;37521;52.020;-1.740;2023-06-24T13:25:43;1.30;;;0.93;;
51451;SDS011;37521;52.020;-1.740;2023-06-24T13:28:11;1.15;;;1.05;;
51451;SDS011;37521;52.020;-1.740;2023-06-24T13:30:39;1.02;;;0.90;;
51451;SDS011;37521;52.020;-1.740;2023-06-24T13:33:08;1.48;;;1.10;;
51451;SDS011;37521;52.020;-1.740;2023-06-24T13:35:36;1.38;;;1.27;;
51451;SDS011;37521;52.020;-1.740;2023-06-24T13:38:05;0.80;;;0.80;;
51451;SDS011;37521;52.020;-1.740;2023-06-24T13:40:35;1.48;;;0.95;;
51451;SDS011;37521;52.020;-1.740;2023-06-24T13:43:04;1.23;;;1.00;;
51451;SDS011;37521;52.020;-1.740;2023-06-24T13:45:33;1.35;;;0.98;;
51451;SDS011;37521;52.020;-1.740;2023-06-24T13:48:01;2.08;;;0.90;;
51451;SDS011;37521;52.020;-1.740;2023-06-24T13:50:30;0.80;;;0.80;;
51451;SDS011;37521;52.020;-1.740;2023-06-24T13:52:58;1.80;;;1.17;;
51451;SDS011;37521;52.020;-1.740;2023-06-24T13:55:27;1.23;;;1.00;;
51451;SDS011;37521;52.020;-1.740;2023-06-24T13:57:57;1.13;;;1.02;;
51451;SDS011;37521;52.020;-1.740;2023-06-24T14:00:25;1.98;;;0.85;;
51451;SDS011;37521;52.020;-1.740;2023-06-24T14:02:54;0.90;;;0.70;;
51451;SDS011;37521;52.020;-1.740;2023-06-24T14:05:23;0.88;;;0.70;;
51451;SDS011;37521;52.020;-1.740;2023-06-24T14:07:51;1.67;;;0.88;;
51451;SDS011;37521;52.020;-1.740;2023-06-24T14:10:22;2.15;;;1.23;;
51451;SDS011;37521;52.020;-1.740;2023-06-24T14:12:50;1.17;;;0.85;;
51451;SDS011;37521;52.020;-1.740;2023-06-24T14:15:20;0.95;;;0.90;;
51451;SDS011;37521;52.020;-1.740;2023-06-24T14:17:49;2.38;;;1.27;;
51451;SDS011;37521;52.020;-1.740;2023-06-24T14:20:17;2.67;;;1.10;;
51451;SDS011;37521;52.020;-1.740;2023-06-24T14:22:46;2.38;;;1.02;;
51451;SDS011;37521;52.020;-1.740;2023-06-24T14:25:14;0.77;;;0.70;;
51451;SDS011;37521;52.020;-1.740;2023-06-24T14:27:44;1.83;;;1.00;;
51451;SDS011;37521;52.020;-1.740;2023-06-24T14:30:13;1.08;;;0.75;;
51451;SDS011;37521;52.020;-1.740;2023-06-24T14:32:44;0.90;;;0.90;;
51451;SDS011;37521;52.020;-1.740;2023-06-24T14:35:19;1.73;;;0.93;;
51451;SDS011;37521;52.020;-1.740;2023-06-24T14:37:47;2.70;;;1.15;;
51451;SDS011;37521;52.020;-1.740;2023-06-24T14:40:15;1.10;;;1.10;;
51451;SDS011;37521;52.020;-1.740;2023-06-24T14:42:44;1.13;;;0.80;;
51451;SDS011;37521;52.020;-1.740;2023-06-24T14:45:13;3.20;;;1.17;;
51451;SDS011;37521;52.020;-1.740;2023-06-24T14:47:44;2.42;;;0.90;;
51451;SDS011;37521;52.020;-1.740;2023-06-24T14:50:12;1.20;;;1.10;;
51451;SDS011;37521;52.020;-1.740;2023-06-24T14:52:41;2.25;;;1.50;;
51451;SDS011;37521;52.020;-1.740;2023-06-24T14:55:09;1.48;;;1.23;;